createdAt,value
2022-11-25T00:01:34.227Z,14.10
2022-11-25T00:04:02.747Z,14.49
2022-11-25T00:06:33.888Z,14.23
2022-11-25T00:09:07.933Z,14.13
2022-11-25T00:11:42.448Z,14.23
2022-11-25T00:14:14.537Z,14.35
2022-11-25T00:16:48.483Z,14.56
2022-11-25T00:19:18.121Z,14.50
2022-11-25T00:21:46.540Z,14.49
2022-11-25T00:24:16.124Z,14.32
2022-11-25T00:26:45.514Z,14.31
2022-11-25T00:29:14.512Z,14.24
2022-11-25T00:31:43.176Z,14.52
2022-11-25T00:34:13.834Z,14.58
2022-11-25T00:36:42.807Z,14.51
2022-11-25T00:39:14.356Z,14.31
2022-11-25T00:42:03.351Z,14.31
2022-11-25T00:44:41.803Z,14.50
2022-11-25T00:47:16.105Z,14.54
2022-11-25T00:49:53.810Z,14.70
2022-11-25T00:52:27.036Z,14.67
2022-11-25T00:54:55.382Z,14.68
2022-11-25T00:57:25.807Z,14.62
2022-11-25T00:59:54.285Z,14.55
2022-11-25T01:02:23.416Z,14.67
2022-11-25T01:04:51.951Z,14.56
2022-11-25T01:07:21.427Z,14.74
2022-11-25T01:09:51.066Z,14.72
2022-11-25T01:12:19.497Z,14.83
2022-11-25T01:14:47.877Z,14.83
2022-11-25T01:17:17.278Z,14.51
2022-11-25T01:19:45.648Z,14.62
2022-11-25T01:22:14.061Z,14.77
2022-11-25T01:24:42.420Z,14.79
2022-11-25T01:27:10.759Z,14.83
2022-11-25T01:29:41.455Z,14.79
2022-11-25T01:32:09.966Z,14.83
2022-11-25T01:34:38.551Z,14.63
2022-11-25T01:37:07.142Z,14.68
2022-11-25T01:39:35.595Z,14.60
2022-11-25T01:42:04.104Z,14.58
2022-11-25T01:44:33.168Z,14.74
2022-11-25T01:47:15.593Z,14.98
2022-11-25T01:49:50.058Z,15.05
2022-11-25T01:52:40.648Z,14.25
2022-11-25T01:55:23.487Z,14.88
2022-11-25T01:57:55.498Z,14.56
2022-11-25T02:00:23.983Z,14.74
2022-11-25T02:02:54.843Z,14.92
2022-11-25T02:05:33.954Z,14.97
2022-11-25T02:08:04.628Z,14.99
2022-11-25T02:10:35.454Z,14.72
2022-11-25T02:13:04.025Z,14.54
2022-11-25T02:15:35.265Z,14.93
2022-11-25T02:18:05.432Z,14.99
2022-11-25T02:20:33.997Z,15.03
2022-11-25T02:23:37.706Z,14.97
2022-11-25T02:26:06.172Z,14.93
2022-11-25T02:28:35.031Z,14.77
2022-11-25T02:31:04.746Z,14.85
2022-11-25T02:33:33.255Z,15.00
2022-11-25T02:36:14.906Z,15.07
2022-11-25T02:38:57.639Z,14.95
2022-11-25T02:41:41.060Z,15.11
2022-11-25T02:44:09.557Z,14.83
2022-11-25T02:46:38.108Z,14.64
2022-11-25T02:49:09.704Z,14.41
2022-11-25T02:51:41.646Z,14.63
2022-11-25T02:54:13.013Z,14.80
2022-11-25T02:56:42.009Z,14.89
2022-11-25T02:59:10.771Z,14.88
2022-11-25T03:01:40.258Z,14.86
2022-11-25T03:04:08.801Z,14.74
2022-11-25T03:06:37.350Z,14.73
2022-11-25T03:09:05.801Z,14.81
2022-11-25T03:11:52.636Z,14.60
2022-11-25T03:14:21.031Z,14.53
2022-11-25T03:16:49.653Z,14.57
2022-11-25T03:19:18.166Z,14.56
2022-11-25T03:21:46.557Z,14.61
2022-11-25T03:24:14.970Z,14.56
2022-11-25T03:26:44.415Z,14.57
2022-11-25T03:29:12.821Z,14.52
2022-11-25T03:31:41.312Z,14.47
2022-11-25T03:34:09.775Z,14.47
2022-11-25T03:36:39.447Z,14.36
2022-11-25T03:39:07.814Z,14.24
2022-11-25T03:41:36.145Z,14.14
2022-11-25T03:44:04.659Z,14.38
2022-11-25T03:46:33.061Z,14.51
2022-11-25T03:49:01.492Z,14.54
2022-11-25T03:51:29.893Z,14.57
2022-11-25T03:53:58.400Z,14.44
2022-11-25T03:56:26.941Z,14.42
2022-11-25T03:58:55.371Z,14.39
2022-11-25T04:01:23.856Z,14.45
2022-11-25T04:03:52.333Z,14.54
2022-11-25T04:06:22.116Z,14.37
2022-11-25T04:08:51.164Z,14.30
2022-11-25T04:11:20.587Z,14.33
2022-11-25T04:13:48.971Z,14.32
2022-11-25T04:16:24.857Z,14.30
2022-11-25T04:18:53.266Z,14.28
2022-11-25T04:21:21.639Z,14.37
2022-11-25T04:23:50.061Z,14.34
2022-11-25T04:26:18.425Z,14.41
2022-11-25T04:28:46.853Z,14.39
2022-11-25T04:31:16.368Z,14.31
2022-11-25T04:33:48.446Z,14.19
2022-11-25T04:36:20.788Z,14.11
2022-11-25T04:38:49.400Z,14.06
2022-11-25T04:41:18.821Z,14.02
2022-11-25T04:43:47.218Z,14.06
2022-11-25T04:46:24.878Z,14.13
2022-11-25T04:48:53.382Z,14.15
2022-11-25T04:51:21.806Z,14.07
2022-11-25T04:53:50.190Z,13.89
2022-11-25T04:56:20.235Z,13.91
2022-11-25T04:59:06.996Z,13.98
2022-11-25T05:01:35.522Z,13.83
2022-11-25T05:04:04.162Z,13.81
2022-11-25T05:06:32.585Z,13.70
2022-11-25T05:09:01.035Z,13.73
2022-11-25T05:11:29.392Z,13.70
2022-11-25T05:13:57.781Z,13.73
2022-11-25T05:16:26.299Z,13.79
2022-11-25T05:18:57.737Z,13.74
2022-11-25T05:21:26.137Z,13.63
2022-11-25T05:23:56.093Z,13.57
2022-11-25T05:26:24.709Z,13.49
2022-11-25T05:28:53.082Z,13.63
2022-11-25T05:31:21.530Z,13.46
2022-11-25T05:33:50.128Z,13.52
2022-11-25T05:36:18.599Z,13.40
2022-11-25T05:38:47.402Z,13.37
2022-11-25T05:41:15.898Z,13.47
2022-11-25T05:43:44.319Z,13.37
2022-11-25T05:46:13.140Z,13.31
2022-11-25T05:48:41.665Z,13.37
2022-11-25T05:51:10.343Z,13.36
2022-11-25T05:53:38.708Z,13.34
2022-11-25T05:56:07.814Z,13.28
2022-11-25T05:58:36.259Z,13.33
2022-11-25T06:01:12.253Z,13.36
2022-11-25T06:03:42.277Z,13.34
2022-11-25T06:06:11.953Z,13.32
2022-11-25T06:08:40.391Z,13.32
2022-11-25T06:11:13.397Z,13.33
2022-11-25T06:13:43.866Z,13.31
2022-11-25T06:16:15.683Z,13.30
2022-11-25T06:18:44.381Z,13.21
2022-11-25T06:21:13.127Z,13.21
2022-11-25T06:23:41.622Z,13.13
2022-11-25T06:26:13.468Z,13.17
2022-11-25T06:28:42.315Z,13.19
2022-11-25T06:31:14.487Z,13.34
2022-11-25T06:33:42.865Z,13.28
2022-11-25T06:36:17.009Z,13.15
2022-11-25T06:38:52.048Z,13.15
2022-11-25T06:41:22.827Z,13.13
2022-11-25T06:43:51.292Z,13.08
2022-11-25T06:46:24.916Z,12.99
2022-11-25T06:48:54.143Z,13.06
2022-11-25T06:51:24.471Z,12.91
2022-11-25T06:53:53.612Z,12.86
2022-11-25T06:56:27.736Z,12.94
2022-11-25T06:58:56.972Z,12.92
2022-11-25T07:01:29.495Z,13.00
2022-11-25T07:04:03.457Z,12.93
2022-11-25T07:06:33.420Z,12.71
2022-11-25T07:09:02.532Z,12.79
2022-11-25T07:11:33.587Z,12.77
2022-11-25T07:14:06.344Z,12.72
2022-11-25T07:16:38.203Z,12.58
2022-11-25T07:19:07.941Z,12.54
2022-11-25T07:21:36.582Z,12.40
2022-11-25T07:24:07.848Z,12.54
2022-11-25T07:26:38.371Z,12.60
2022-11-25T07:29:29.394Z,12.70
2022-11-25T07:31:59.582Z,12.69
2022-11-25T07:34:28.998Z,12.80
2022-11-25T07:36:58.441Z,12.84
2022-11-25T07:39:26.924Z,12.67
2022-11-25T07:41:55.438Z,12.62
2022-11-25T07:44:24.025Z,12.57
2022-11-25T07:46:52.560Z,12.56
2022-11-25T07:49:25.309Z,12.52
2022-11-25T07:51:59.677Z,12.55
2022-11-25T07:54:29.124Z,12.47
2022-11-25T07:56:57.768Z,12.44
2022-11-25T07:59:27.241Z,12.43
2022-11-25T08:01:56.389Z,12.15
2022-11-25T08:04:25.987Z,12.29
2022-11-25T08:06:55.462Z,12.48
2022-11-25T08:09:24.199Z,12.55
2022-11-25T08:11:52.996Z,12.39
2022-11-25T08:14:21.702Z,12.36
2022-11-25T08:16:50.216Z,12.41
2022-11-25T08:19:18.882Z,12.40
2022-11-25T08:21:50.258Z,12.47
2022-11-25T08:24:21.052Z,12.49
2022-11-25T08:26:49.804Z,12.48
2022-11-25T08:29:19.209Z,12.60
2022-11-25T08:31:47.685Z,12.69
2022-11-25T08:34:22.667Z,12.66
2022-11-25T08:36:52.088Z,12.73
2022-11-25T08:39:51.154Z,12.79
2022-11-25T08:42:11.011Z,12.60
2022-11-25T08:44:39.606Z,12.79
2022-11-25T08:47:09.772Z,12.79
2022-11-25T08:49:41.243Z,12.75
2022-11-25T08:52:10.711Z,12.80
2022-11-25T08:54:39.350Z,12.88
2022-11-25T08:57:07.828Z,12.77
2022-11-25T08:59:36.954Z,12.86
2022-11-25T09:02:07.251Z,12.73
2022-11-25T09:04:35.776Z,12.88
2022-11-25T09:07:04.987Z,12.96
2022-11-25T09:09:33.705Z,13.01
2022-11-25T09:12:02.142Z,12.95
2022-11-25T09:14:30.641Z,13.05
2022-11-25T09:17:01.977Z,13.20
2022-11-25T09:19:31.532Z,12.84
2022-11-25T09:21:59.973Z,12.98
2022-11-25T09:24:28.500Z,13.27
2022-11-25T09:26:56.978Z,12.83
2022-11-25T09:29:26.331Z,13.20
2022-11-25T09:31:55.772Z,13.32
2022-11-25T09:34:24.409Z,13.32
2022-11-25T09:36:53.038Z,13.39
2022-11-25T09:39:21.426Z,13.57
2022-11-25T09:42:34.640Z,13.80
2022-11-25T09:45:33.821Z,13.84
2022-11-25T09:48:20.332Z,13.78
2022-11-25T09:51:02.843Z,13.57
2022-11-25T09:53:53.193Z,12.62
2022-11-25T09:56:40.855Z,13.51
2022-11-25T09:59:25.025Z,13.40
2022-11-25T10:02:02.610Z,13.92
2022-11-25T10:04:55.114Z,14.00
2022-11-25T10:07:33.281Z,13.91
2022-11-25T10:10:04.789Z,13.71
2022-11-25T10:12:39.913Z,13.87
2022-11-25T10:15:34.146Z,14.07
2022-11-25T10:18:27.307Z,14.25
2022-11-25T10:20:55.975Z,14.25
2022-11-25T10:23:35.418Z,14.28
2022-11-25T10:26:15.634Z,13.87
2022-11-25T10:29:00.260Z,14.26
2022-11-25T10:31:38.175Z,14.46
2022-11-25T10:34:26.911Z,14.52
2022-11-25T10:36:58.860Z,14.08
2022-11-25T10:39:31.829Z,14.48
2022-11-25T10:42:12.715Z,14.70
2022-11-25T10:44:42.244Z,14.52
2022-11-25T10:47:29.379Z,14.04
2022-11-25T10:50:20.186Z,14.20
2022-11-25T10:53:10.719Z,14.57
2022-11-25T10:55:39.271Z,14.58
2022-11-25T10:58:29.094Z,14.78
2022-11-25T11:01:36.028Z,14.72
2022-11-25T11:04:11.615Z,14.60
2022-11-25T11:06:42.401Z,14.58
2022-11-25T11:09:34.523Z,14.73
2022-11-25T11:12:19.647Z,14.95
2022-11-25T11:14:48.884Z,14.97
2022-11-25T11:17:36.824Z,14.99
2022-11-25T11:20:09.166Z,14.82
2022-11-25T11:22:47.175Z,14.92
2022-11-25T11:25:21.656Z,14.95
2022-11-25T11:27:50.295Z,14.45
2022-11-25T11:30:23.182Z,14.88
2022-11-25T11:32:57.724Z,15.16
2022-11-25T11:35:45.316Z,15.29
2022-11-25T11:38:30.425Z,15.12
2022-11-25T11:41:30.083Z,14.73
2022-11-25T11:44:23.029Z,14.70
2022-11-25T11:47:03.682Z,14.88
2022-11-25T11:49:50.541Z,14.56
2022-11-25T11:52:47.573Z,14.79
2022-11-25T11:56:11.742Z,14.72
2022-11-25T11:58:38.808Z,15.29
2022-11-25T12:01:20.970Z,15.17
2022-11-25T12:04:03.615Z,15.05
2022-11-25T12:06:35.029Z,15.16
2022-11-25T12:09:18.454Z,14.11
2022-11-25T12:11:54.183Z,14.91
2022-11-25T12:14:40.629Z,15.28
2022-11-25T12:17:18.753Z,15.29
2022-11-25T12:20:00.216Z,15.55
2022-11-25T12:22:42.474Z,15.56
2022-11-25T12:25:21.273Z,15.62
2022-11-25T12:28:06.619Z,15.55
2022-11-25T12:30:41.786Z,15.45
2022-11-25T12:33:21.640Z,15.64
2022-11-25T12:36:16.672Z,15.44
2022-11-25T12:39:04.077Z,15.70
2022-11-25T12:41:42.295Z,15.57
2022-11-25T12:44:19.739Z,15.70
2022-11-25T12:46:53.383Z,15.91
2022-11-25T12:49:25.643Z,15.89
2022-11-25T12:52:26.933Z,15.89
2022-11-25T12:55:14.678Z,15.90
2022-11-25T12:58:16.923Z,15.70
2022-11-25T13:00:56.608Z,15.72
2022-11-25T13:03:31.127Z,15.95
2022-11-25T13:06:16.300Z,15.55
2022-11-25T13:08:51.804Z,15.06
2022-11-25T13:11:24.004Z,15.12
2022-11-25T13:14:08.334Z,14.59
2022-11-25T13:16:37.504Z,14.39
2022-11-25T13:19:12.248Z,15.21
2022-11-25T13:22:00.309Z,15.27
2022-11-25T13:24:34.288Z,15.21
2022-11-25T13:27:05.160Z,14.78
2022-11-25T13:29:39.930Z,15.27
2022-11-25T13:32:31.649Z,15.37
2022-11-25T13:35:26.224Z,15.69
2022-11-25T13:37:54.670Z,15.72
2022-11-25T13:40:23.043Z,15.49
2022-11-25T13:42:52.507Z,15.67
2022-11-25T13:45:32.367Z,15.78
2022-11-25T13:48:18.889Z,15.93
2022-11-25T13:51:09.974Z,15.69
2022-11-25T13:53:38.871Z,15.77
2022-11-25T13:56:24.400Z,15.86
2022-11-25T13:59:11.153Z,15.72
2022-11-25T14:01:46.929Z,15.88
2022-11-25T14:04:16.574Z,15.91
2022-11-25T14:07:20.287Z,15.77
2022-11-25T14:10:17.011Z,15.82
2022-11-25T14:12:59.247Z,15.29
2022-11-25T14:15:44.456Z,15.76
2022-11-25T14:19:16.866Z,15.93
2022-11-25T14:21:45.667Z,15.94
2022-11-25T14:24:28.156Z,16.01
2022-11-25T14:26:59.205Z,16.05
2022-11-25T14:29:30.838Z,16.15
2022-11-25T14:32:08.757Z,16.27
2022-11-25T14:34:49.160Z,16.18
2022-11-25T14:37:44.208Z,16.06
2022-11-25T14:40:21.971Z,15.76
2022-11-25T14:42:54.039Z,15.87
2022-11-25T14:45:26.292Z,15.74
2022-11-25T14:47:55.375Z,15.80
2022-11-25T14:50:40.452Z,15.80
2022-11-25T14:53:11.259Z,15.78
2022-11-25T14:55:39.722Z,15.73
2022-11-25T14:58:12.497Z,15.66
2022-11-25T15:00:59.863Z,15.50
2022-11-25T15:03:28.490Z,15.51
2022-11-25T15:06:06.025Z,15.67
2022-11-25T15:08:45.703Z,15.74
2022-11-25T15:11:18.679Z,15.75
2022-11-25T15:13:53.030Z,15.82
2022-11-25T15:16:26.010Z,15.90
2022-11-25T15:18:59.863Z,16.02
2022-11-25T15:22:00.051Z,15.92
2022-11-25T15:24:48.948Z,15.71
2022-11-25T15:27:25.151Z,15.38
2022-11-25T15:29:55.774Z,15.48
2022-11-25T15:32:29.805Z,15.68
2022-11-25T15:35:02.399Z,15.66
2022-11-25T15:37:30.953Z,15.57
2022-11-25T15:40:30.162Z,15.55
2022-11-25T15:43:02.493Z,15.40
2022-11-25T15:45:44.313Z,15.32
2022-11-25T15:48:24.324Z,15.28
2022-11-25T15:50:56.486Z,15.33
2022-11-25T15:53:31.666Z,15.53
2022-11-25T15:56:03.307Z,15.43
2022-11-25T15:58:31.799Z,15.46
2022-11-25T16:01:19.237Z,15.52
2022-11-25T16:03:49.376Z,15.40
2022-11-25T16:06:26.547Z,15.37
2022-11-25T16:09:00.936Z,15.34
2022-11-25T16:11:33.607Z,15.13
2022-11-25T16:14:26.867Z,15.06
2022-11-25T16:17:01.950Z,14.94
2022-11-25T16:19:37.769Z,14.86
2022-11-25T16:22:14.451Z,14.88
2022-11-25T16:24:50.625Z,14.96
2022-11-25T16:27:19.282Z,15.02
2022-11-25T16:29:50.692Z,14.95
2022-11-25T16:32:28.287Z,15.04
2022-11-25T16:35:09.972Z,15.13
2022-11-25T16:37:42.775Z,15.26
2022-11-25T16:40:15.366Z,15.18
2022-11-25T16:42:48.732Z,15.23
2022-11-25T16:45:23.422Z,15.24
2022-11-25T16:47:51.950Z,15.39
2022-11-25T16:50:23.144Z,15.22
2022-11-25T16:52:51.504Z,15.17
2022-11-25T16:55:20.131Z,15.30
2022-11-25T16:57:48.612Z,15.14
2022-11-25T17:00:18.391Z,15.01
2022-11-25T17:02:46.828Z,14.91
2022-11-25T17:05:24.312Z,14.92
2022-11-25T17:07:52.904Z,14.92
2022-11-25T17:10:21.693Z,15.09
2022-11-25T17:12:50.880Z,15.12
2022-11-25T17:15:24.795Z,15.16
2022-11-25T17:17:54.633Z,15.13
2022-11-25T17:20:24.773Z,14.96
2022-11-25T17:22:54.134Z,14.77
2022-11-25T17:25:25.578Z,14.66
2022-11-25T17:27:54.747Z,14.63
2022-11-25T17:30:25.514Z,14.62
2022-11-25T17:33:06.374Z,14.68
2022-11-25T17:35:34.780Z,14.65
2022-11-25T17:38:12.155Z,14.63
2022-11-25T17:40:43.175Z,14.67
2022-11-25T17:43:16.540Z,14.63
2022-11-25T17:45:46.623Z,14.68
2022-11-25T17:48:17.436Z,14.66
2022-11-25T17:50:47.337Z,14.59
2022-11-25T17:53:15.786Z,14.53
2022-11-25T17:55:44.247Z,14.52
2022-11-25T17:58:15.442Z,14.47
2022-11-25T18:00:45.242Z,14.34
2022-11-25T18:03:16.315Z,14.23
2022-11-25T18:05:45.947Z,14.13
2022-11-25T18:08:14.582Z,14.05
2022-11-25T18:10:46.246Z,14.08
2022-11-25T18:13:16.233Z,14.03
2022-11-25T18:15:44.726Z,14.15
2022-11-25T18:18:21.843Z,14.09
2022-11-25T18:20:51.488Z,14.04
2022-11-25T18:23:20.063Z,14.16
2022-11-25T18:25:48.808Z,14.15
2022-11-25T18:28:24.664Z,14.16
2022-11-25T18:30:57.046Z,14.22
2022-11-25T18:33:25.546Z,14.24
2022-11-25T18:35:54.109Z,14.09
2022-11-25T18:38:22.704Z,13.86
2022-11-25T18:40:53.936Z,13.68
2022-11-25T18:43:26.244Z,13.64
2022-11-25T18:45:55.599Z,13.59
2022-11-25T18:48:25.929Z,13.65
2022-11-25T18:50:56.117Z,13.62
2022-11-25T18:53:24.663Z,13.68
2022-11-25T18:55:53.206Z,13.69
2022-11-25T18:58:24.370Z,13.61
2022-11-25T19:00:57.925Z,13.68
2022-11-25T19:03:26.561Z,13.63
2022-11-25T19:05:55.889Z,13.47
2022-11-25T19:08:24.382Z,13.49
2022-11-25T19:10:53.293Z,13.47
2022-11-25T19:13:34.938Z,13.44
2022-11-25T19:16:12.029Z,13.39
2022-11-25T19:18:40.700Z,13.48
2022-11-25T19:21:18.453Z,13.43
2022-11-25T19:23:47.926Z,13.29
2022-11-25T19:26:24.945Z,13.37
2022-11-25T19:29:01.567Z,13.31
2022-11-25T19:31:33.198Z,13.18
2022-11-25T19:34:02.114Z,13.20
2022-11-25T19:36:31.750Z,13.23
2022-11-25T19:39:00.548Z,13.23
2022-11-25T19:41:29.242Z,13.14
2022-11-25T19:43:57.830Z,13.04
2022-11-25T19:46:33.108Z,13.00
2022-11-25T19:49:03.060Z,12.93
2022-11-25T19:51:33.953Z,12.83
2022-11-25T19:54:12.231Z,12.81
2022-11-25T19:56:41.363Z,12.79
2022-11-25T19:59:10.486Z,12.92
2022-11-25T20:01:43.459Z,12.88
2022-11-25T20:04:22.045Z,12.88
2022-11-25T20:06:50.619Z,12.81
2022-11-25T20:09:19.022Z,12.83
2022-11-25T20:11:47.632Z,12.58
2022-11-25T20:14:16.089Z,12.59
2022-11-25T20:16:44.658Z,12.74
2022-11-25T20:19:18.150Z,12.86
2022-11-25T20:21:47.377Z,12.74
2022-11-25T20:24:19.514Z,12.83
2022-11-25T20:26:51.599Z,12.77
2022-11-25T20:29:27.399Z,12.51
2022-11-25T20:31:58.783Z,12.51
2022-11-25T20:34:28.266Z,12.56
2022-11-25T20:36:56.995Z,12.56
2022-11-25T20:39:25.593Z,12.48
2022-11-25T20:41:54.007Z,12.43
2022-11-25T20:44:23.623Z,12.36
2022-11-25T20:46:52.255Z,12.35
2022-11-25T20:49:29.339Z,12.35
2022-11-25T20:51:59.234Z,12.42
2022-11-25T20:54:27.825Z,12.34
2022-11-25T20:56:57.284Z,12.39
2022-11-25T20:59:25.769Z,12.40
2022-11-25T21:01:54.897Z,12.31
2022-11-25T21:04:23.606Z,12.25
2022-11-25T21:06:52.062Z,12.25
2022-11-25T21:09:24.812Z,12.29
2022-11-25T21:11:53.278Z,12.15
2022-11-25T21:14:21.717Z,12.18
2022-11-25T21:16:50.353Z,11.99
2022-11-25T21:19:18.908Z,12.04
2022-11-25T21:21:50.571Z,11.91
2022-11-25T21:24:51.426Z,12.13
2022-11-25T21:27:20.562Z,12.04
2022-11-25T21:29:48.902Z,12.09
2022-11-25T21:32:22.871Z,12.00
2022-11-25T21:34:52.123Z,11.94
2022-11-25T21:37:30.145Z,11.96
2022-11-25T21:39:59.213Z,11.82
2022-11-25T21:42:29.667Z,11.87
2022-11-25T21:44:58.191Z,11.92
2022-11-25T21:47:29.544Z,12.01
2022-11-25T21:49:58.367Z,11.93
2022-11-25T21:52:26.844Z,11.91
2022-11-25T21:54:55.266Z,11.92
2022-11-25T21:57:27.958Z,11.85
2022-11-25T21:59:56.403Z,11.87
2022-11-25T22:02:24.977Z,11.76
2022-11-25T22:04:54.749Z,11.80
2022-11-25T22:07:29.176Z,11.77
2022-11-25T22:09:59.132Z,11.83
2022-11-25T22:12:30.225Z,11.78
2022-11-25T22:15:00.775Z,11.69
2022-11-25T22:17:30.033Z,11.61
2022-11-25T22:19:58.861Z,11.64
2022-11-25T22:22:27.940Z,11.64
2022-11-25T22:24:56.366Z,11.48
2022-11-25T22:27:36.202Z,11.59
2022-11-25T22:30:05.716Z,11.74
2022-11-25T22:32:34.214Z,11.68
2022-11-25T22:35:02.624Z,11.67
2022-11-25T22:37:31.221Z,11.69
2022-11-25T22:39:59.692Z,11.74
2022-11-25T22:42:30.990Z,11.66
2022-11-25T22:45:02.131Z,11.63
2022-11-25T22:47:37.312Z,11.65
2022-11-25T22:50:14.389Z,11.61
2022-11-25T22:52:43.097Z,11.68
2022-11-25T22:55:16.401Z,11.65
2022-11-25T22:57:45.585Z,11.61
2022-11-25T23:00:23.858Z,11.64
2022-11-25T23:02:56.258Z,11.72
2022-11-25T23:05:32.567Z,11.82
2022-11-25T23:08:09.813Z,11.66
2022-11-25T23:10:38.268Z,11.63
2022-11-25T23:13:06.997Z,11.57
2022-11-25T23:15:36.261Z,11.37
2022-11-25T23:18:12.121Z,11.45
2022-11-25T23:20:41.682Z,11.51
2022-11-25T23:23:19.819Z,11.43
2022-11-25T23:25:49.204Z,11.25
2022-11-25T23:28:17.693Z,11.30
2022-11-25T23:30:52.035Z,11.39
2022-11-25T23:33:29.599Z,11.41
2022-11-25T23:35:59.233Z,11.43
2022-11-25T23:38:28.811Z,11.43
2022-11-25T23:40:57.279Z,11.44
2022-11-25T23:43:26.583Z,11.17
2022-11-25T23:45:56.488Z,11.06
2022-11-25T23:48:29.272Z,11.01
2022-11-25T23:50:59.223Z,11.00
2022-11-25T23:53:33.566Z,11.05
2022-11-25T23:56:02.099Z,11.00
2022-11-25T23:58:30.659Z,10.86
